sensor_id;sensor_type;location;lat;lon;timestamp;temperature;humidity
76751;SHT31;65216;51.090;-115.352;2023-05-29T00:02:17;23.30;35.02
76751;SHT31;65216;51.090;-115.352;2023-05-29T00:04:45;23.31;35.03
76751;SHT31;65216;51.090;-115.352;2023-05-29T00:07:12;23.31;35.04
76751;SHT31;65216;51.090;-115.352;2023-05-29T00:09:39;23.32;35.05
76751;SHT31;65216;51.090;-115.352;2023-05-29T00:12:06;23.30;35.10
76751;SHT31;65216;51.090;-115.352;2023-05-29T00:14:37;23.30;35.10
76751;SHT31;65216;51.090;-115.352;2023-05-29T00:17:04;23.31;35.10
76751;SHT31;65216;51.090;-115.352;2023-05-29T00:19:31;23.31;35.11
76751;SHT31;65216;51.090;-115.352;2023-05-29T00:21:59;23.32;35.12
76751;SHT31;65216;51.090;-115.352;2023-05-29T00:24:31;23.33;35.10
76751;SHT31;65216;51.090;-115.352;2023-05-29T00:26:58;23.32;35.11
76751;SHT31;65216;51.090;-115.352;2023-05-29T00:29:26;23.30;35.10
76751;SHT31;65216;51.090;-115.352;2023-05-29T00:31:53;23.29;35.10
76751;SHT31;65216;51.090;-115.352;2023-05-29T00:34:22;23.29;35.09
76751;SHT31;65216;51.090;-115.352;2023-05-29T00:36:50;23.28;35.10
76751;SHT31;65216;51.090;-115.352;2023-05-29T00:39:21;23.25;35.03
76751;SHT31;65216;51.090;-115.352;2023-05-29T00:41:51;23.24;34.94
76751;SHT31;65216;51.090;-115.352;2023-05-29T00:44:21;23.23;34.95
76751;SHT31;65216;51.090;-115.352;2023-05-29T00:46:52;23.22;34.90
76751;SHT31;65216;51.090;-115.352;2023-05-29T00:49:22;23.22;34.89
76751;SHT31;65216;51.090;-115.352;2023-05-29T00:51:50;23.22;34.76
76751;SHT31;65216;51.090;-115.352;2023-05-29T00:54:21;23.22;34.71
76751;SHT31;65216;51.090;-115.352;2023-05-29T00:56:54;23.20;34.75
76751;SHT31;65216;51.090;-115.352;2023-05-29T00:59:27;23.19;34.78
76751;SHT31;65216;51.090;-115.352;2023-05-29T01:01:58;23.18;34.71
76751;SHT31;65216;51.090;-115.352;2023-05-29T01:04:27;23.19;34.76
76751;SHT31;65216;51.090;-115.352;2023-05-29T01:06:54;23.20;34.77
76751;SHT31;65216;51.090;-115.352;2023-05-29T01:09:22;23.20;34.80
76751;SHT31;65216;51.090;-115.352;2023-05-29T01:14:33;23.19;34.86
76751;SHT31;65216;51.090;-115.352;2023-05-29T01:20:35;23.17;34.80
76751;SHT31;65216;51.090;-115.352;2023-05-29T01:23:40;23.14;34.78
76751;SHT31;65216;51.090;-115.352;2023-05-29T01:29:29;23.11;34.83
76751;SHT31;65216;51.090;-115.352;2023-05-29T01:32:01;23.09;34.89
76751;SHT31;65216;51.090;-115.352;2023-05-29T01:34:29;23.09;34.88
76751;SHT31;65216;51.090;-115.352;2023-05-29T01:36:58;23.08;34.86
76751;SHT31;65216;51.090;-115.352;2023-05-29T01:39:25;23.09;34.91
76751;SHT31;65216;51.090;-115.352;2023-05-29T01:41:53;23.11;34.90
76751;SHT31;65216;51.090;-115.352;2023-05-29T01:44:21;23.13;34.84
76751;SHT31;65216;51.090;-115.352;2023-05-29T01:46:50;23.13;34.88
76751;SHT31;65216;51.090;-115.352;2023-05-29T01:49:18;23.13;34.88
76751;SHT31;65216;51.090;-115.352;2023-05-29T01:51:49;23.13;34.95
76751;SHT31;65216;51.090;-115.352;2023-05-29T01:54:16;23.12;34.92
76751;SHT31;65216;51.090;-115.352;2023-05-29T01:56:43;23.11;34.95
76751;SHT31;65216;51.090;-115.352;2023-05-29T01:59:11;23.11;34.96
76751;SHT31;65216;51.090;-115.352;2023-05-29T02:01:39;23.11;35.02
76751;SHT31;65216;51.090;-115.352;2023-05-29T02:04:07;23.11;34.92
76751;SHT31;65216;51.090;-115.352;2023-05-29T02:06:34;23.12;34.98
76751;SHT31;65216;51.090;-115.352;2023-05-29T02:09:02;23.12;35.00
76751;SHT31;65216;51.090;-115.352;2023-05-29T02:11:29;23.10;35.06
76751;SHT31;65216;51.090;-115.352;2023-05-29T02:13:59;23.09;35.08
76751;SHT31;65216;51.090;-115.352;2023-05-29T02:16:29;23.10;35.08
76751;SHT31;65216;51.090;-115.352;2023-05-29T02:18:59;23.09;35.10
76751;SHT31;65216;51.090;-115.352;2023-05-29T02:21:27;23.08;35.09
76751;SHT31;65216;51.090;-115.352;2023-05-29T02:23:54;23.09;35.14
76751;SHT31;65216;51.090;-115.352;2023-05-29T02:26:21;23.09;35.10
76751;SHT31;65216;51.090;-115.352;2023-05-29T02:28:48;23.07;35.19
76751;SHT31;65216;51.090;-115.352;2023-05-29T02:31:15;23.07;35.36
76751;SHT31;65216;51.090;-115.352;2023-05-29T02:33:42;23.07;35.15
76751;SHT31;65216;51.090;-115.352;2023-05-29T02:36:15;23.05;35.14
76751;SHT31;65216;51.090;-115.352;2023-05-29T02:38:43;23.02;35.10
76751;SHT31;65216;51.090;-115.352;2023-05-29T02:41:10;23.02;35.02
76751;SHT31;65216;51.090;-115.352;2023-05-29T02:43:39;23.01;35.01
76751;SHT31;65216;51.090;-115.352;2023-05-29T02:46:06;22.99;35.01
76751;SHT31;65216;51.090;-115.352;2023-05-29T02:48:33;22.97;34.96
76751;SHT31;65216;51.090;-115.352;2023-05-29T02:51:00;22.95;34.94
76751;SHT31;65216;51.090;-115.352;2023-05-29T02:53:29;22.93;34.93
76751;SHT31;65216;51.090;-115.352;2023-05-29T02:55:57;22.92;34.89
76751;SHT31;65216;51.090;-115.352;2023-05-29T02:58:24;22.89;34.80
76751;SHT31;65216;51.090;-115.352;2023-05-29T03:00:52;22.88;34.73
76751;SHT31;65216;51.090;-115.352;2023-05-29T03:03:19;22.85;34.68
76751;SHT31;65216;51.090;-115.352;2023-05-29T03:05:49;22.84;34.61
76751;SHT31;65216;51.090;-115.352;2023-05-29T03:08:16;22.82;34.51
76751;SHT31;65216;51.090;-115.352;2023-05-29T03:10:46;22.80;34.40
76751;SHT31;65216;51.090;-115.352;2023-05-29T03:13:13;22.79;34.39
76751;SHT31;65216;51.090;-115.352;2023-05-29T03:15:46;22.78;34.30
76751;SHT31;65216;51.090;-115.352;2023-05-29T03:18:13;22.75;34.21
76751;SHT31;65216;51.090;-115.352;2023-05-29T03:20:40;22.73;34.20
76751;SHT31;65216;51.090;-115.352;2023-05-29T03:23:07;22.73;34.14
76751;SHT31;65216;51.090;-115.352;2023-05-29T03:25:35;22.71;34.07
76751;SHT31;65216;51.090;-115.352;2023-05-29T03:28:02;22.69;34.01
76751;SHT31;65216;51.090;-115.352;2023-05-29T03:30:29;22.70;33.97
76751;SHT31;65216;51.090;-115.352;2023-05-29T03:32:56;22.69;33.97
76751;SHT31;65216;51.090;-115.352;2023-05-29T03:35:29;22.66;33.93
76751;SHT31;65216;51.090;-115.352;2023-05-29T03:38:00;22.66;33.90
76751;SHT31;65216;51.090;-115.352;2023-05-29T03:40:26;22.64;33.88
76751;SHT31;65216;51.090;-115.352;2023-05-29T03:42:53;22.62;33.88
76751;SHT31;65216;51.090;-115.352;2023-05-29T03:45:20;22.61;33.88
76751;SHT31;65216;51.090;-115.352;2023-05-29T03:47:47;22.59;33.86
76751;SHT31;65216;51.090;-115.352;2023-05-29T03:50:14;22.57;33.87
76751;SHT31;65216;51.090;-115.352;2023-05-29T03:52:42;22.57;33.89
76751;SHT31;65216;51.090;-115.352;2023-05-29T03:55:12;22.55;33.90
76751;SHT31;65216;51.090;-115.352;2023-05-29T03:57:40;22.55;33.89
76751;SHT31;65216;51.090;-115.352;2023-05-29T04:00:07;22.52;33.90
76751;SHT31;65216;51.090;-115.352;2023-05-29T04:02:39;22.51;33.90
76751;SHT31;65216;51.090;-115.352;2023-05-29T04:05:07;22.50;33.90
76751;SHT31;65216;51.090;-115.352;2023-05-29T04:07:41;22.49;33.91
76751;SHT31;65216;51.090;-115.352;2023-05-29T04:10:08;22.47;33.94
76751;SHT31;65216;51.090;-115.352;2023-05-29T04:12:35;22.47;33.95
76751;SHT31;65216;51.090;-115.352;2023-05-29T04:15:02;22.46;34.02
76751;SHT31;65216;51.090;-115.352;2023-05-29T04:17:32;22.45;34.68
76751;SHT31;65216;51.090;-115.352;2023-05-29T04:19:59;22.43;35.03
76751;SHT31;65216;51.090;-115.352;2023-05-29T04:22:33;22.42;34.97
76751;SHT31;65216;51.090;-115.352;2023-05-29T04:25:04;22.41;34.88
76751;SHT31;65216;51.090;-115.352;2023-05-29T04:27:31;22.39;34.79
76751;SHT31;65216;51.090;-115.352;2023-05-29T04:30:05;22.38;34.81
76751;SHT31;65216;51.090;-115.352;2023-05-29T04:32:34;22.36;34.73
76751;SHT31;65216;51.090;-115.352;2023-05-29T04:35:05;22.35;34.82
76751;SHT31;65216;51.090;-115.352;2023-05-29T04:37:33;22.34;35.21
76751;SHT31;65216;51.090;-115.352;2023-05-29T04:40:04;22.34;35.34
76751;SHT31;65216;51.090;-115.352;2023-05-29T04:42:36;22.32;35.44
76751;SHT31;65216;51.090;-115.352;2023-05-29T04:45:07;22.31;35.17
76751;SHT31;65216;51.090;-115.352;2023-05-29T04:47:36;22.32;35.07
76751;SHT31;65216;51.090;-115.352;2023-05-29T04:50:10;22.30;35.02
76751;SHT31;65216;51.090;-115.352;2023-05-29T04:52:43;22.29;34.96
76751;SHT31;65216;51.090;-115.352;2023-05-29T04:55:10;22.28;34.93
76751;SHT31;65216;51.090;-115.352;2023-05-29T04:57:41;22.27;34.96
76751;SHT31;65216;51.090;-115.352;2023-05-29T05:00:09;22.26;35.09
76751;SHT31;65216;51.090;-115.352;2023-05-29T05:02:41;22.26;35.08
76751;SHT31;65216;51.090;-115.352;2023-05-29T05:05:09;22.26;35.04
76751;SHT31;65216;51.090;-115.352;2023-05-29T05:07:37;22.24;34.98
76751;SHT31;65216;51.090;-115.352;2023-05-29T05:10:04;22.25;34.90
76751;SHT31;65216;51.090;-115.352;2023-05-29T05:12:32;22.23;34.87
76751;SHT31;65216;51.090;-115.352;2023-05-29T05:14:59;22.24;34.82
76751;SHT31;65216;51.090;-115.352;2023-05-29T05:17:26;22.23;34.88
76751;SHT31;65216;51.090;-115.352;2023-05-29T05:19:53;22.22;34.90
76751;SHT31;65216;51.090;-115.352;2023-05-29T05:22:23;22.22;34.90
76751;SHT31;65216;51.090;-115.352;2023-05-29T05:24:50;22.22;34.87
76751;SHT31;65216;51.090;-115.352;2023-05-29T05:27:18;22.20;34.88
76751;SHT31;65216;51.090;-115.352;2023-05-29T05:29:45;22.20;34.88
76751;SHT31;65216;51.090;-115.352;2023-05-29T05:32:13;22.18;34.96
76751;SHT31;65216;51.090;-115.352;2023-05-29T05:34:40;22.18;35.00
76751;SHT31;65216;51.090;-115.352;2023-05-29T05:37:10;22.17;35.01
76751;SHT31;65216;51.090;-115.352;2023-05-29T05:39:40;22.16;35.04
76751;SHT31;65216;51.090;-115.352;2023-05-29T05:42:07;22.17;35.09
76751;SHT31;65216;51.090;-115.352;2023-05-29T05:44:34;22.16;35.10
76751;SHT31;65216;51.090;-115.352;2023-05-29T05:47:01;22.16;35.16
76751;SHT31;65216;51.090;-115.352;2023-05-29T05:49:28;22.14;35.19
76751;SHT31;65216;51.090;-115.352;2023-05-29T05:51:55;22.14;35.23
76751;SHT31;65216;51.090;-115.352;2023-05-29T05:54:21;22.13;35.28
76751;SHT31;65216;51.090;-115.352;2023-05-29T05:56:48;22.13;35.36
76751;SHT31;65216;51.090;-115.352;2023-05-29T05:59:15;22.12;35.42
76751;SHT31;65216;51.090;-115.352;2023-05-29T06:01:42;22.12;35.47
76751;SHT31;65216;51.090;-115.352;2023-05-29T06:04:09;22.11;35.50
76751;SHT31;65216;51.090;-115.352;2023-05-29T06:06:38;22.10;35.59
76751;SHT31;65216;51.090;-115.352;2023-05-29T06:09:09;22.09;35.62
76751;SHT31;65216;51.090;-115.352;2023-05-29T06:11:37;22.09;35.69
76751;SHT31;65216;51.090;-115.352;2023-05-29T06:14:04;22.08;35.71
76751;SHT31;65216;51.090;-115.352;2023-05-29T06:16:31;22.09;35.79
76751;SHT31;65216;51.090;-115.352;2023-05-29T06:18:58;22.08;35.80
76751;SHT31;65216;51.090;-115.352;2023-05-29T06:21:25;22.07;35.84
76751;SHT31;65216;51.090;-115.352;2023-05-29T06:23:52;22.07;35.87
76751;SHT31;65216;51.090;-115.352;2023-05-29T06:26:19;22.07;35.90
76751;SHT31;65216;51.090;-115.352;2023-05-29T06:28:47;22.08;35.91
76751;SHT31;65216;51.090;-115.352;2023-05-29T06:31:13;22.07;35.93
76751;SHT31;65216;51.090;-115.352;2023-05-29T06:33:41;22.06;35.98
76751;SHT31;65216;51.090;-115.352;2023-05-29T06:36:08;22.06;36.00
76751;SHT31;65216;51.090;-115.352;2023-05-29T06:38:36;22.05;36.01
76751;SHT31;65216;51.090;-115.352;2023-05-29T06:41:03;22.04;36.02
76751;SHT31;65216;51.090;-115.352;2023-05-29T06:43:33;22.03;36.08
76751;SHT31;65216;51.090;-115.352;2023-05-29T06:46:00;22.02;36.10
76751;SHT31;65216;51.090;-115.352;2023-05-29T06:48:27;22.02;36.10
76751;SHT31;65216;51.090;-115.352;2023-05-29T06:50:54;22.01;36.10
76751;SHT31;65216;51.090;-115.352;2023-05-29T06:53:21;22.01;36.11
76751;SHT31;65216;51.090;-115.352;2023-05-29T06:55:48;22.00;36.16
76751;SHT31;65216;51.090;-115.352;2023-05-29T06:58:15;22.01;36.16
76751;SHT31;65216;51.090;-115.352;2023-05-29T07:00:42;22.00;36.18
76751;SHT31;65216;51.090;-115.352;2023-05-29T07:03:09;21.99;36.17
76751;SHT31;65216;51.090;-115.352;2023-05-29T07:05:36;22.00;36.20
76751;SHT31;65216;51.090;-115.352;2023-05-29T07:08:03;21.97;36.19
76751;SHT31;65216;51.090;-115.352;2023-05-29T07:10:32;21.97;36.22
76751;SHT31;65216;51.090;-115.352;2023-05-29T07:12:59;21.96;36.24
76751;SHT31;65216;51.090;-115.352;2023-05-29T07:15:26;21.96;36.27
76751;SHT31;65216;51.090;-115.352;2023-05-29T07:17:53;21.96;36.30
76751;SHT31;65216;51.090;-115.352;2023-05-29T07:20:23;21.95;36.30
76751;SHT31;65216;51.090;-115.352;2023-05-29T07:22:50;21.95;36.31
76751;SHT31;65216;51.090;-115.352;2023-05-29T07:25:17;21.95;36.34
76751;SHT31;65216;51.090;-115.352;2023-05-29T07:27:46;21.94;36.37
76751;SHT31;65216;51.090;-115.352;2023-05-29T07:30:14;21.93;36.40
76751;SHT31;65216;51.090;-115.352;2023-05-29T07:32:44;21.92;36.40
76751;SHT31;65216;51.090;-115.352;2023-05-29T07:35:11;21.90;36.40
76751;SHT31;65216;51.090;-115.352;2023-05-29T07:37:38;21.90;36.42
76751;SHT31;65216;51.090;-115.352;2023-05-29T07:40:05;21.90;36.50
76751;SHT31;65216;51.090;-115.352;2023-05-29T07:42:33;21.90;36.47
76751;SHT31;65216;51.090;-115.352;2023-05-29T07:45:00;21.88;36.50
76751;SHT31;65216;51.090;-115.352;2023-05-29T07:47:30;21.87;36.50
76751;SHT31;65216;51.090;-115.352;2023-05-29T07:49:59;21.87;36.50
76751;SHT31;65216;51.090;-115.352;2023-05-29T07:52:26;21.86;36.50
76751;SHT31;65216;51.090;-115.352;2023-05-29T07:54:53;21.85;36.50
76751;SHT31;65216;51.090;-115.352;2023-05-29T07:57:20;21.85;36.50
76751;SHT31;65216;51.090;-115.352;2023-05-29T07:59:47;21.84;36.50
76751;SHT31;65216;51.090;-115.352;2023-05-29T08:02:15;21.83;36.45
76751;SHT31;65216;51.090;-115.352;2023-05-29T08:04:46;21.83;36.40
76751;SHT31;65216;51.090;-115.352;2023-05-29T08:07:13;21.82;36.37
76751;SHT31;65216;51.090;-115.352;2023-05-29T08:09:40;21.83;36.31
76751;SHT31;65216;51.090;-115.352;2023-05-29T08:12:07;21.82;36.29
76751;SHT31;65216;51.090;-115.352;2023-05-29T08:14:34;21.82;36.20
76751;SHT31;65216;51.090;-115.352;2023-05-29T08:17:04;21.82;36.11
76751;SHT31;65216;51.090;-115.352;2023-05-29T08:19:31;21.82;36.10
76751;SHT31;65216;51.090;-115.352;2023-05-29T08:21:59;21.82;36.01
76751;SHT31;65216;51.090;-115.352;2023-05-29T08:24:26;21.81;36.00
76751;SHT31;65216;51.090;-115.352;2023-05-29T08:26:53;21.81;36.00
76751;SHT31;65216;51.090;-115.352;2023-05-29T08:29:20;21.81;35.92
76751;SHT31;65216;51.090;-115.352;2023-05-29T08:31:47;21.80;35.89
76751;SHT31;65216;51.090;-115.352;2023-05-29T08:34:14;21.79;35.80
76751;SHT31;65216;51.090;-115.352;2023-05-29T08:36:41;21.78;35.79
76751;SHT31;65216;51.090;-115.352;2023-05-29T08:39:08;21.78;35.71
76751;SHT31;65216;51.090;-115.352;2023-05-29T08:41:49;21.77;35.69
76751;SHT31;65216;51.090;-115.352;2023-05-29T08:44:26;21.76;35.61
76751;SHT31;65216;51.090;-115.352;2023-05-29T08:47:02;21.76;35.53
76751;SHT31;65216;51.090;-115.352;2023-05-29T08:49:40;21.76;35.52
76751;SHT31;65216;51.090;-115.352;2023-05-29T08:52:09;21.75;35.50
76751;SHT31;65216;51.090;-115.352;2023-05-29T08:54:43;21.76;35.49
76751;SHT31;65216;51.090;-115.352;2023-05-29T08:57:11;21.76;35.43
76751;SHT31;65216;51.090;-115.352;2023-05-29T08:59:42;21.76;35.40
76751;SHT31;65216;51.090;-115.352;2023-05-29T09:02:10;21.75;35.34
76751;SHT31;65216;51.090;-115.352;2023-05-29T09:04:38;21.76;35.27
76751;SHT31;65216;51.090;-115.352;2023-05-29T09:07:11;21.75;35.21
76751;SHT31;65216;51.090;-115.352;2023-05-29T09:09:39;21.74;35.17
76751;SHT31;65216;51.090;-115.352;2023-05-29T09:12:08;21.73;35.12
76751;SHT31;65216;51.090;-115.352;2023-05-29T09:14:38;21.73;35.09
76751;SHT31;65216;51.090;-115.352;2023-05-29T09:17:10;21.72;35.01
76751;SHT31;65216;51.090;-115.352;2023-05-29T09:19:40;21.71;34.95
76751;SHT31;65216;51.090;-115.352;2023-05-29T09:22:11;21.71;34.89
76751;SHT31;65216;51.090;-115.352;2023-05-29T09:24:40;21.71;34.77
76751;SHT31;65216;51.090;-115.352;2023-05-29T09:27:14;21.69;34.66
76751;SHT31;65216;51.090;-115.352;2023-05-29T09:29:42;21.70;34.58
76751;SHT31;65216;51.090;-115.352;2023-05-29T09:34:42;21.68;34.43
76751;SHT31;65216;51.090;-115.352;2023-05-29T09:37:12;21.67;34.35
76751;SHT31;65216;51.090;-115.352;2023-05-29T09:39:49;21.67;34.30
76751;SHT31;65216;51.090;-115.352;2023-05-29T09:42:17;21.66;34.22
76751;SHT31;65216;51.090;-115.352;2023-05-29T09:44:46;21.66;34.20
76751;SHT31;65216;51.090;-115.352;2023-05-29T09:47:19;21.65;34.20
76751;SHT31;65216;51.090;-115.352;2023-05-29T09:49:50;21.65;34.11
76751;SHT31;65216;51.090;-115.352;2023-05-29T09:52:20;21.65;34.10
76751;SHT31;65216;51.090;-115.352;2023-05-29T09:54:48;21.63;34.09
76751;SHT31;65216;51.090;-115.352;2023-05-29T09:57:16;21.63;34.01
76751;SHT31;65216;51.090;-115.352;2023-05-29T09:59:49;21.62;33.98
76751;SHT31;65216;51.090;-115.352;2023-05-29T10:02:18;21.62;33.89
76751;SHT31;65216;51.090;-115.352;2023-05-29T10:04:47;21.62;33.83
76751;SHT31;65216;51.090;-115.352;2023-05-29T10:07:20;21.61;33.81
76751;SHT31;65216;51.090;-115.352;2023-05-29T10:10:02;21.61;33.80
76751;SHT31;65216;51.090;-115.352;2023-05-29T10:12:36;21.62;33.80
76751;SHT31;65216;51.090;-115.352;2023-05-29T10:15:06;21.61;33.80
76751;SHT31;65216;51.090;-115.352;2023-05-29T10:17:43;21.59;33.80
76751;SHT31;65216;51.090;-115.352;2023-05-29T10:20:25;21.59;33.80
76751;SHT31;65216;51.090;-115.352;2023-05-29T10:22:54;21.57;33.80
76751;SHT31;65216;51.090;-115.352;2023-05-29T10:25:30;21.55;33.87
76751;SHT31;65216;51.090;-115.352;2023-05-29T10:27:59;21.53;33.90
76751;SHT31;65216;51.090;-115.352;2023-05-29T10:36:14;21.46;33.91
76751;SHT31;65216;51.090;-115.352;2023-05-29T10:38:51;21.45;33.90
76751;SHT31;65216;51.090;-115.352;2023-05-29T10:44:01;21.40;33.92
76751;SHT31;65216;51.090;-115.352;2023-05-29T10:49:16;21.37;33.90
76751;SHT31;65216;51.090;-115.352;2023-05-29T10:51:47;21.36;33.90
76751;SHT31;65216;51.090;-115.352;2023-05-29T10:54:24;21.34;33.90
76751;SHT31;65216;51.090;-115.352;2023-05-29T10:56:52;21.32;33.90
76751;SHT31;65216;51.090;-115.352;2023-05-29T10:59:25;21.30;33.90
76751;SHT31;65216;51.090;-115.352;2023-05-29T11:01:54;21.28;33.89
76751;SHT31;65216;51.090;-115.352;2023-05-29T11:06:53;21.26;33.82
76751;SHT31;65216;51.090;-115.352;2023-05-29T11:09:30;21.25;33.82
76751;SHT31;65216;51.090;-115.352;2023-05-29T11:15:08;21.24;33.82
76751;SHT31;65216;51.090;-115.352;2023-05-29T11:20:08;21.22;33.80
76751;SHT31;65216;51.090;-115.352;2023-05-29T11:23:05;21.22;33.80
76751;SHT31;65216;51.090;-115.352;2023-05-29T11:25:34;21.21;33.82
76751;SHT31;65216;51.090;-115.352;2023-05-29T11:28:03;21.21;33.84
76751;SHT31;65216;51.090;-115.352;2023-05-29T11:30:47;21.22;33.80
76751;SHT31;65216;51.090;-115.352;2023-05-29T11:33:24;21.23;33.80
76751;SHT31;65216;51.090;-115.352;2023-05-29T11:35:57;21.21;33.80
76751;SHT31;65216;51.090;-115.352;2023-05-29T11:38:26;21.21;33.80
76751;SHT31;65216;51.090;-115.352;2023-05-29T11:40:54;21.21;33.76
76751;SHT31;65216;51.090;-115.352;2023-05-29T11:43:24;21.21;33.78
76751;SHT31;65216;51.090;-115.352;2023-05-29T11:45:51;21.21;33.77
76751;SHT31;65216;51.090;-115.352;2023-05-29T11:48:18;21.20;33.79
76751;SHT31;65216;51.090;-115.352;2023-05-29T11:50:46;21.21;33.77
76751;SHT31;65216;51.090;-115.352;2023-05-29T11:53:13;21.20;33.75
76751;SHT31;65216;51.090;-115.352;2023-05-29T11:55:43;21.19;33.79
76751;SHT31;65216;51.090;-115.352;2023-05-29T11:58:10;21.18;33.78
76751;SHT31;65216;51.090;-115.352;2023-05-29T12:00:37;21.18;33.79
76751;SHT31;65216;51.090;-115.352;2023-05-29T12:03:06;21.19;33.71
76751;SHT31;65216;51.090;-115.352;2023-05-29T12:05:43;21.20;33.70
76751;SHT31;65216;51.090;-115.352;2023-05-29T12:08:15;21.19;33.68
76751;SHT31;65216;51.090;-115.352;2023-05-29T12:10:50;21.20;33.66
76751;SHT31;65216;51.090;-115.352;2023-05-29T12:13:19;21.20;33.60
76751;SHT31;65216;51.090;-115.352;2023-05-29T12:15:47;21.19;33.61
76751;SHT31;65216;51.090;-115.352;2023-05-29T12:18:19;21.21;33.59
76751;SHT31;65216;51.090;-115.352;2023-05-29T12:20:46;21.22;33.55
76751;SHT31;65216;51.090;-115.352;2023-05-29T12:23:17;21.21;33.55
76751;SHT31;65216;51.090;-115.352;2023-05-29T12:25:46;21.21;33.51
76751;SHT31;65216;51.090;-115.352;2023-05-29T12:28:16;21.21;33.52
76751;SHT31;65216;51.090;-115.352;2023-05-29T12:30:44;21.23;33.52
76751;SHT31;65216;51.090;-115.352;2023-05-29T12:33:28;21.22;33.53
76751;SHT31;65216;51.090;-115.352;2023-05-29T12:36:07;21.21;33.55
76751;SHT31;65216;51.090;-115.352;2023-05-29T12:38:49;21.23;33.57
76751;SHT31;65216;51.090;-115.352;2023-05-29T12:41:24;21.23;33.59
76751;SHT31;65216;51.090;-115.352;2023-05-29T12:44:00;21.23;33.60
76751;SHT31;65216;51.090;-115.352;2023-05-29T12:46:40;21.24;33.62
76751;SHT31;65216;51.090;-115.352;2023-05-29T12:49:15;21.24;33.60
76751;SHT31;65216;51.090;-115.352;2023-05-29T12:51:51;21.24;33.60
76751;SHT31;65216;51.090;-115.352;2023-05-29T12:54:18;21.24;33.61
76751;SHT31;65216;51.090;-115.352;2023-05-29T12:56:45;21.25;33.61
76751;SHT31;65216;51.090;-115.352;2023-05-29T12:59:11;21.27;33.59
76751;SHT31;65216;51.090;-115.352;2023-05-29T13:01:39;21.27;33.53
76751;SHT31;65216;51.090;-115.352;2023-05-29T13:04:06;21.29;33.53
76751;SHT31;65216;51.090;-115.352;2023-05-29T13:06:34;21.30;33.50
76751;SHT31;65216;51.090;-115.352;2023-05-29T13:09:03;21.31;33.50
76751;SHT31;65216;51.090;-115.352;2023-05-29T13:11:32;21.33;33.50
76751;SHT31;65216;51.090;-115.352;2023-05-29T13:14:00;21.34;33.50
76751;SHT31;65216;51.090;-115.352;2023-05-29T13:16:29;21.34;33.50
76751;SHT31;65216;51.090;-115.352;2023-05-29T13:18:56;21.35;33.51
76751;SHT31;65216;51.090;-115.352;2023-05-29T13:21:23;21.37;33.59
76751;SHT31;65216;51.090;-115.352;2023-05-29T13:23:53;21.36;33.62
76751;SHT31;65216;51.090;-115.352;2023-05-29T13:26:20;21.37;33.68
76751;SHT31;65216;51.090;-115.352;2023-05-29T13:28:47;21.38;33.75
76751;SHT31;65216;51.090;-115.352;2023-05-29T13:31:14;21.38;33.77
76751;SHT31;65216;51.090;-115.352;2023-05-29T13:33:46;21.40;33.78
76751;SHT31;65216;51.090;-115.352;2023-05-29T13:36:13;21.39;33.77
76751;SHT31;65216;51.090;-115.352;2023-05-29T13:38:40;21.40;33.78
76751;SHT31;65216;51.090;-115.352;2023-05-29T13:41:07;21.40;33.77
76751;SHT31;65216;51.090;-115.352;2023-05-29T13:43:34;21.40;33.80
76751;SHT31;65216;51.090;-115.352;2023-05-29T13:46:04;21.41;33.80
76751;SHT31;65216;51.090;-115.352;2023-05-29T13:48:30;21.42;33.79
76751;SHT31;65216;51.090;-115.352;2023-05-29T13:51:01;21.43;33.74
76751;SHT31;65216;51.090;-115.352;2023-05-29T13:53:46;21.43;33.74
76751;SHT31;65216;51.090;-115.352;2023-05-29T13:56:13;21.43;33.78
76751;SHT31;65216;51.090;-115.352;2023-05-29T13:58:42;21.45;33.78
76751;SHT31;65216;51.090;-115.352;2023-05-29T14:01:10;21.47;33.76
76751;SHT31;65216;51.090;-115.352;2023-05-29T14:03:40;21.48;33.72
76751;SHT31;65216;51.090;-115.352;2023-05-29T14:06:07;21.49;33.71
76751;SHT31;65216;51.090;-115.352;2023-05-29T14:08:42;21.49;33.70
76751;SHT31;65216;51.090;-115.352;2023-05-29T14:11:36;21.49;33.76
76751;SHT31;65216;51.090;-115.352;2023-05-29T14:14:03;21.49;33.79
76751;SHT31;65216;51.090;-115.352;2023-05-29T14:16:33;21.48;33.78
76751;SHT31;65216;51.090;-115.352;2023-05-29T14:19:05;21.48;33.77
76751;SHT31;65216;51.090;-115.352;2023-05-29T14:21:32;21.47;33.80
76751;SHT31;65216;51.090;-115.352;2023-05-29T14:23:59;21.47;33.89
76751;SHT31;65216;51.090;-115.352;2023-05-29T14:26:26;21.46;33.88
76751;SHT31;65216;51.090;-115.352;2023-05-29T14:28:53;21.45;33.90
76751;SHT31;65216;51.090;-115.352;2023-05-29T14:31:21;21.46;33.90
76751;SHT31;65216;51.090;-115.352;2023-05-29T14:36:33;21.44;33.90
76751;SHT31;65216;51.090;-115.352;2023-05-29T14:39:01;21.43;33.90
76751;SHT31;65216;51.090;-115.352;2023-05-29T14:41:29;21.44;33.96
76751;SHT31;65216;51.090;-115.352;2023-05-29T14:43:56;21.43;33.99
76751;SHT31;65216;51.090;-115.352;2023-05-29T14:46:25;21.43;34.03
76751;SHT31;65216;51.090;-115.352;2023-05-29T14:48:54;21.42;34.14
76751;SHT31;65216;51.090;-115.352;2023-05-29T14:51:20;21.43;34.27
76751;SHT31;65216;51.090;-115.352;2023-05-29T14:53:49;21.43;34.38
76751;SHT31;65216;51.090;-115.352;2023-05-29T14:56:16;21.42;34.51
76751;SHT31;65216;51.090;-115.352;2023-05-29T14:58:44;21.42;34.58
76751;SHT31;65216;51.090;-115.352;2023-05-29T15:01:15;21.42;34.68
76751;SHT31;65216;51.090;-115.352;2023-05-29T15:03:43;21.42;34.75
76751;SHT31;65216;51.090;-115.352;2023-05-29T15:06:10;21.42;34.87
76751;SHT31;65216;51.090;-115.352;2023-05-29T15:08:40;21.41;34.91
76751;SHT31;65216;51.090;-115.352;2023-05-29T15:11:08;21.41;35.04
76751;SHT31;65216;51.090;-115.352;2023-05-29T15:13:38;21.39;35.22
76751;SHT31;65216;51.090;-115.352;2023-05-29T15:16:05;21.38;35.28
76751;SHT31;65216;51.090;-115.352;2023-05-29T15:18:33;21.38;35.36
76751;SHT31;65216;51.090;-115.352;2023-05-29T15:21:00;21.39;35.45
76751;SHT31;65216;51.090;-115.352;2023-05-29T15:23:28;21.39;35.57
76751;SHT31;65216;51.090;-115.352;2023-05-29T15:25:55;21.39;35.66
76751;SHT31;65216;51.090;-115.352;2023-05-29T15:28:22;21.39;35.75
76751;SHT31;65216;51.090;-115.352;2023-05-29T15:30:49;21.41;35.83
76751;SHT31;65216;51.090;-115.352;2023-05-29T15:33:16;21.41;35.94
76751;SHT31;65216;51.090;-115.352;2023-05-29T15:35:45;21.40;36.06